Ship Status Report: callsign AMOUK35

sailwx.info

Track history (hours):
 
Tides and Currents Weather Stations Pressure Air Temp Water Temp Dewpoint Dewpoint Depression Visibility Wind Speed Wind Dir Waves Ship Positions

Callsign AMOUK35 (name unknown)

Last reported at 2015-Apr-20 09:00 UTC. Time now 2015-May-06 18:33 UTC.
Position N 56°24' W 005°30'.
Warning: this ship's position is 16 days out of date.

Barometer 1031.0 mb
Air temperature 9.6 ° C
Dewpoint 3.2 ° C

Date/timePositionNaut miles runAvg speedWind from/ knotsBaromVisibWave heightAir tempDewpointWater temp
2015-Apr-20 09:00N 56°24' W 005°30'0 0.0 1031.0 9.6 3.2
2015-Apr-20 08:00N 56°24' W 005°30'9 4.5 1030.8 9.2 2.8
2015-Apr-20 06:00N 56°30' W 005°42'12 5.8 1029.9 7.0 3.7
2015-Apr-20 04:00N 56°36' W 006°00'24 8.1 1029.6 6.7 3.7
2015-Apr-20 01:00N 56°54' W 006°30'7 6.8 1029.4 8.6 7.1
2015-Apr-20 00:00N 57°00' W 006°36'14 6.8 1029.2 8.9 7.5
2015-Apr-19 22:00N 57°12' W 006°48'1212.4 1028.8 10.0 6.4
2015-Apr-19 21:00N 57°24' W 006°54'6 6.0 1028.5 10.5 5.5
2015-Apr-19 20:00N 57°30' W 006°54'26 6.6 1028.4 9.0 6.6
2015-Apr-19 16:00N 57°36' W 006°06'12 4.0 1029.3 8.9 5.8
2015-Apr-19 13:00N 57°24' W 006°06'22 7.4 1030.5 10.3 6.2
2015-Apr-19 10:00N 57°42' W 006°30'14 3.5 1030.8 8.6 5.3
2015-Apr-19 06:00N 57°36' W 006°54'7 6.8 1030.7 8.0 6.1
2015-Apr-19 05:00N 57°30' W 006°48'7 6.8 1030.3 8.3 5.9
2015-Apr-19 04:00N 57°24' W 006°54'6 6.0 1030.5 8.6 5.9
2015-Apr-19 03:00N 57°18' W 006°54'18 9.0 1031.2 8.6 5.9
2015-Apr-19 01:00N 57°00' W 006°54'12 5.8 1031.2 8.8 6.1
2015-Apr-18 23:00N 56°54' W 006°36'18 8.9 1031.6 9.4 6.6
2015-Apr-18 21:00N 56°42' W 006°12'9 8.9 1031.4 9.1 6.9
2015-Apr-18 20:00N 56°36' W 006°00'7 6.9 1030.9 11.0 4.9
2015-Apr-18 19:00N 56°30' W 005°54'7 6.6 1030.4 12.0 4.7
2015-Apr-18 18:00N 56°30' W 005°42'9 4.5 1030.1 12.6 4.5
2015-Apr-18 16:00N 56°24' W 005°30'0 0.0 1031.0 13.5 5.3
2015-Apr-18 15:00N 56°24' W 005°30'0 0.0 1031.4 13.2 3.0
2015-Apr-18 12:00N 56°24' W 005°30'7 3.4 1032.9 11.0 3.1
2015-Apr-18 10:00N 56°18' W 005°36'9 9.0 1033.3 8.7 4.2
2015-Apr-18 09:00N 56°12' W 005°48'26 8.7 1033.2 7.8 4.1
2015-Apr-18 06:00N 55°48' W 006°06'3 3.4 1032.3 7.9 3.2
2015-Apr-18 05:00N 55°48' W 006°00'1212.0 1032.0 7.2 3.5
2015-Apr-18 04:00N 55°36' W 006°00'12 6.2 1031.6 7.6 4.4
2015-Apr-18 02:00N 55°24' W 005°54'1413.8 1031.1 9.0 3.2
2015-Apr-18 01:00N 55°12' W 005°42'3014.8 1030.6 8.4 5.3
2015-Apr-17 23:00N 54°48' W 005°12'18 9.2 1029.4 8.4 4.1
2015-Apr-17 21:00N 54°36' W 004°48'9 9.2 1027.9 9.5 5.3
2015-Apr-17 20:00N 54°30' W 004°36'7 7.0 1027.1 9.4 6.1
2015-Apr-17 19:00N 54°30' W 004°24'18 9.2 1026.4 9.2 6.3
2015-Apr-17 17:00N 54°18' W 004°00'1413.9 1025.0 10.0 4.9
2015-Apr-17 16:00N 54°06' W 003°48'9 9.3 1024.6 10.1 5.0
2015-Apr-17 15:00N 54°00' W 003°36'0 0.0 1024.4 11.3 4.0
2015-Apr-17 14:00N 54°00' W 003°36'0 0.0 1023.9 10.9 3.8
2015-Apr-17 13:00N 54°00' W 003°36'0 0.0 1023.3 10.2 4.3
2015-Apr-17 06:00N 54°00' W 003°36'0 0.0 1018.9 8.5 4.6
2015-Apr-17 05:00N 54°00' W 003°36'0 0.0 1018.5 8.6 4.7
2015-Apr-17 03:00N 54°00' W 003°36'0 0.0 1017.6 8.9 5.5
2015-Apr-16 23:00N 54°00' W 003°36'0 0.0 1016.7 9.5 5.3
2015-Apr-16 22:00N 54°00' W 003°36'4 0.5 1016.4 8.5 5.3
2015-Apr-16 15:00N 54°00' W 003°42'9 4.6 1017.2 9.3 4.0
2015-Apr-16 13:00N 54°06' W 003°54'0 0.0 1018.1 7.3 2.1
2015-Apr-16 12:00N 54°06' W 003°54'0 0.0 1018.2 9.2 3.4
2015-Apr-16 11:00N 54°06' W 003°54'0 0.0 1018.3 10.8 5.1
2015-Apr-16 09:00N 54°06' W 003°54'1312.5 1017.9 6.7 3.3
2015-Apr-16 08:00N 53°54' W 003°48'14 7.0 1017.7 7.0 4.0
2015-Apr-16 06:00N 53°42' W 003°36'0 0.0 1018.0 7.2 4.2
2015-Apr-16 05:00N 53°42' W 003°36'0 0.0 1018.0 7.2 5.2
2015-Apr-16 02:00N 53°42' W 003°36'0 0.0 1018.7 7.5 5.0
2015-Apr-15 23:00N 53°42' W 003°36'19 9.3 1019.0 7.6 5.1
2015-Apr-15 21:00N 53°30' W 003°12'9 4.7 1018.3 8.1 5.6
2015-Apr-15 19:00N 53°24' W 003°00'0 0.0 1018.0 8.5 4.5
2015-Apr-15 17:00N 53°24' W 003°00'0 0.0 1017.7 9.0 4.8
2015-Apr-15 15:00N 53°24' W 003°00'0 0.0 1017.7 8.7 5.5
2015-Apr-15 12:00N 53°24' W 003°00'0 0.0 1017.4 8.8 7.3
2015-Apr-15 11:00N 53°24' W 003°00'0 0.0 1017.2 9.3 6.7
2015-Apr-15 10:00N 53°24' W 003°00'0 0.0 1016.9 9.2 6.1
2015-Apr-15 08:00N 53°24' W 003°00'0 0.0 1016.6 9.4 5.6
2015-Apr-15 05:00N 53°24' W 003°00'0 0.0 1016.3 8.2 5.5
2015-Apr-15 04:00N 53°24' W 003°00'0 0.0 1016.2 8.3 5.3
2015-Apr-15 01:00N 53°24' W 003°00'0 0.0 1018.1 9.1 5.8
2015-Apr-14 22:00N 53°24' W 003°00'0 0.0 1019.1 10.4 6.5
2015-Apr-14 20:00N 53°24' W 003°00'0 0.0 1019.7 11.6 6.3
2015-Apr-14 19:00N 53°24' W 003°00'0 0.0 1019.9 13.0 6.5
2015-Apr-14 14:00N 53°24' W 003°00'0 0.0 1022.3 11.0 7.6
2015-Apr-14 09:00N 53°24' W 003°00'19 4.7 1023.3 11.9 6.5
2015-Apr-14 05:00N 53°30' W 003°30'4 3.6 1023.0 9.8 6.9
2015-Apr-14 04:00N 53°30' W 003°36'29 5.7 1023.4 9.2 6.9
2015-Apr-13 23:00N 53°30' W 004°24'7 7.1 1025.3 8.6 7.6
2015-Apr-13 22:00N 53°30' W 004°36'4 3.6 1025.2 8.5 7.5
2015-Apr-13 21:00N 53°30' W 004°42'26 5.3 1025.1 8.6 7.6
2015-Apr-13 16:00N 53°06' W 005°00'7 7.0 1026.2 9.7 8.0
2015-Apr-13 15:00N 53°00' W 005°06'19 6.5 1027.0 9.4 8.2
2015-Apr-13 12:00N 52°42' W 005°18'6 6.0 1028.7 9.0 8.3
2015-Apr-13 11:00N 52°36' W 005°18'7 7.0 1029.1 8.8 8.0
2015-Apr-13 10:00N 52°30' W 005°24'6 6.0 1029.3 8.6 7.8
2015-Apr-13 09:00N 52°24' W 005°24'19 6.5 1029.2 8.4 7.4
2015-Apr-13 06:00N 52°06' W 005°36'4310.7 1029.1 8.4 7.2
2015-Apr-13 02:00N 51°24' W 005°48'2412.1 1029.2 8.4 6.9
2015-Apr-13 00:00N 51°00' W 005°54'3010.0 1029.1 8.4 7.4
2015-Apr-12 21:00N 50°30' W 005°54'6 6.0 1028.3 10.3 8.9
2015-Apr-12 20:00N 50°24' W 005°54'2412.0 1028.0 10.4 8.9
2015-Apr-12 18:00N 50°00' W 005°54'24 8.0 1027.5 11.4 9.2
2015-Apr-12 15:00N 49°54' W 005°18'8 7.7 1027.2 11.4 9.1
2015-Apr-12 14:00N 49°54' W 005°06'39 7.8 1027.0 11.4 9.0
2015-Apr-12 09:00N 50°00' W 004°06'1211.6 1026.5 11.3 6.6
2015-Apr-12 08:00N 50°00' W 003°48'1211.6 1026.6 11.1 6.4
2015-Apr-12 07:00N 50°00' W 003°30'47 9.3 1026.7 10.2 5.9
2015-Apr-12 02:00N 50°06' W 002°18'10 9.8 1028.1 9.3 4.7
2015-Apr-12 01:00N 50°12' W 002°06'8 7.7 1028.4 9.2 4.3
2015-Apr-12 00:00N 50°12' W 001°54'8 7.7 1028.4 9.3 4.6
2015-Apr-11 23:00N 50°12' W 001°42'10 9.7 1027.9 9.3 4.4
2015-Apr-11 22:00N 50°18' W 001°30'7 7.1 1028.1 9.4 5.2
2015-Apr-11 21:00N 50°12' W 001°24'2311.3 1028.2 9.7 5.5
2015-Apr-11 19:00N 50°00' W 000°54'1313.0 1026.8 9.4 5.7
2015-Apr-11 18:00N 49°54' W 000°36'8 7.7 1026.2 9.6 5.5
2015-Apr-11 17:00N 49°54' W 000°24'1211.6 1025.6 9.6 5.1
2015-Apr-11 16:00N 49°54' W 000°06'10 9.8 1024.8 9.4 4.5
2015-Apr-11 15:00N 49°48' E 000°06'8 7.7 1024.1 9.3 5.5
2015-Apr-11 14:00N 49°48' E 000°18'4 3.9 1023.4 9.4 6.2
2015-Apr-11 13:00N 49°48' E 000°24'0 0.0 1023.2 11.1 7.7
2015-Apr-11 12:00N 49°48' E 000°24'0 0.0 1022.2 10.2 7.3
2015-Apr-11 09:00N 49°48' E 000°24'0 0.0 1018.9 11.2 8.3
2015-Apr-11 08:00N 49°48' E 000°24'0 0.0 1018.5 11.5 7.1
2015-Apr-11 03:00N 49°48' E 000°24'0 0.0 1015.9 11.3 9.8
2015-Apr-11 02:00N 49°48' E 000°24'0 0.0 1015.7 11.8 9.8
2015-Apr-11 01:00N 49°48' E 000°24'4 3.9 1016.0 11.7 9.9
2015-Apr-11 00:00N 49°48' E 000°18'0 0.0 1016.0 12.3 8.9
2015-Apr-10 23:00N 49°48' E 000°18'0 0.0 1016.6 12.5 8.8
2015-Apr-10 22:00N 49°48' E 000°18'0 0.0 1017.0 12.5 8.7
2015-Apr-10 21:00N 49°48' E 000°18'0 0.0 1017.0 13.0 6.4
2015-Apr-10 20:00N 49°48' E 000°18'0 0.0 1016.5 13.3 9.7
2015-Apr-10 16:00N 49°48' E 000°18'4 1.9 1015.9 17.4 4.0
2015-Apr-10 14:00N 49°48' E 000°12'0 0.0 1016.8 15.3 5.3
2015-Apr-10 11:00N 49°48' E 000°12'0 0.0 1018.1 15.3 5.4
2015-Apr-10 10:00N 49°48' E 000°12'0 0.0 1018.6 15.4 6.6
2015-Apr-10 09:00N 49°48' E 000°12'   1019.0 13.2 6.1
Track history (hours):
 
Tides and Currents Weather Stations Pressure Air Temp Water Temp Dewpoint Dewpoint Depression Visibility Wind Speed Wind Dir Waves Ship Positions

Callsign AMOUK35 (name unknown)

Last reported at 2015-Apr-20 09:00 UTC. Time now 2015-May-06 18:33 UTC.
Position N 56°24' W 005°30'.
Warning: this ship's position is 16 days out of date.

Barometer 1031.0 mb
Air temperature 9.6 ° C
Dewpoint 3.2 ° C

Date/timePositionNaut miles runAvg speedWind from/ knotsBaromVisibWave heightAir tempDewpointWater temp
2015-Apr-20 09:00N 56°24' W 005°30'0 0.0 1031.0 9.6 3.2
2015-Apr-20 08:00N 56°24' W 005°30'9 4.5 1030.8 9.2 2.8
2015-Apr-20 06:00N 56°30' W 005°42'12 5.8 1029.9 7.0 3.7
2015-Apr-20 04:00N 56°36' W 006°00'24 8.1 1029.6 6.7 3.7
2015-Apr-20 01:00N 56°54' W 006°30'7 6.8 1029.4 8.6 7.1
2015-Apr-20 00:00N 57°00' W 006°36'14 6.8 1029.2 8.9 7.5
2015-Apr-19 22:00N 57°12' W 006°48'1212.4 1028.8 10.0 6.4
2015-Apr-19 21:00N 57°24' W 006°54'6 6.0 1028.5 10.5 5.5
2015-Apr-19 20:00N 57°30' W 006°54'26 6.6 1028.4 9.0 6.6
2015-Apr-19 16:00N 57°36' W 006°06'12 4.0 1029.3 8.9 5.8
2015-Apr-19 13:00N 57°24' W 006°06'22 7.4 1030.5 10.3 6.2
2015-Apr-19 10:00N 57°42' W 006°30'14 3.5 1030.8 8.6 5.3
2015-Apr-19 06:00N 57°36' W 006°54'7 6.8 1030.7 8.0 6.1
2015-Apr-19 05:00N 57°30' W 006°48'7 6.8 1030.3 8.3 5.9
2015-Apr-19 04:00N 57°24' W 006°54'6 6.0 1030.5 8.6 5.9
2015-Apr-19 03:00N 57°18' W 006°54'18 9.0 1031.2 8.6 5.9
2015-Apr-19 01:00N 57°00' W 006°54'12 5.8 1031.2 8.8 6.1
2015-Apr-18 23:00N 56°54' W 006°36'18 8.9 1031.6 9.4 6.6
2015-Apr-18 21:00N 56°42' W 006°12'9 8.9 1031.4 9.1 6.9
2015-Apr-18 20:00N 56°36' W 006°00'7 6.9 1030.9 11.0 4.9
2015-Apr-18 19:00N 56°30' W 005°54'7 6.6 1030.4 12.0 4.7
2015-Apr-18 18:00N 56°30' W 005°42'9 4.5 1030.1 12.6 4.5
2015-Apr-18 16:00N 56°24' W 005°30'0 0.0 1031.0 13.5 5.3
2015-Apr-18 15:00N 56°24' W 005°30'0 0.0 1031.4 13.2 3.0
2015-Apr-18 12:00N 56°24' W 005°30'7 3.4 1032.9 11.0 3.1
2015-Apr-18 10:00N 56°18' W 005°36'9 9.0 1033.3 8.7 4.2
2015-Apr-18 09:00N 56°12' W 005°48'26 8.7 1033.2 7.8 4.1
2015-Apr-18 06:00N 55°48' W 006°06'3 3.4 1032.3 7.9 3.2
2015-Apr-18 05:00N 55°48' W 006°00'1212.0 1032.0 7.2 3.5
2015-Apr-18 04:00N 55°36' W 006°00'12 6.2 1031.6 7.6 4.4
2015-Apr-18 02:00N 55°24' W 005°54'1413.8 1031.1 9.0 3.2
2015-Apr-18 01:00N 55°12' W 005°42'3014.8 1030.6 8.4 5.3
2015-Apr-17 23:00N 54°48' W 005°12'18 9.2 1029.4 8.4 4.1
2015-Apr-17 21:00N 54°36' W 004°48'9 9.2 1027.9 9.5 5.3
2015-Apr-17 20:00N 54°30' W 004°36'7 7.0 1027.1 9.4 6.1
2015-Apr-17 19:00N 54°30' W 004°24'18 9.2 1026.4 9.2 6.3
2015-Apr-17 17:00N 54°18' W 004°00'1413.9 1025.0 10.0 4.9
2015-Apr-17 16:00N 54°06' W 003°48'9 9.3 1024.6 10.1 5.0
2015-Apr-17 15:00N 54°00' W 003°36'0 0.0 1024.4 11.3 4.0
2015-Apr-17 14:00N 54°00' W 003°36'0 0.0 1023.9 10.9 3.8
2015-Apr-17 13:00N 54°00' W 003°36'0 0.0 1023.3 10.2 4.3
2015-Apr-17 06:00N 54°00' W 003°36'0 0.0 1018.9 8.5 4.6
2015-Apr-17 05:00N 54°00' W 003°36'0 0.0 1018.5 8.6 4.7
2015-Apr-17 03:00N 54°00' W 003°36'0 0.0 1017.6 8.9 5.5
2015-Apr-16 23:00N 54°00' W 003°36'0 0.0 1016.7 9.5 5.3
2015-Apr-16 22:00N 54°00' W 003°36'4 0.5 1016.4 8.5 5.3
2015-Apr-16 15:00N 54°00' W 003°42'9 4.6 1017.2 9.3 4.0
2015-Apr-16 13:00N 54°06' W 003°54'0 0.0 1018.1 7.3 2.1
2015-Apr-16 12:00N 54°06' W 003°54'0 0.0 1018.2 9.2 3.4
2015-Apr-16 11:00N 54°06' W 003°54'0 0.0 1018.3 10.8 5.1
2015-Apr-16 09:00N 54°06' W 003°54'1312.5 1017.9 6.7 3.3
2015-Apr-16 08:00N 53°54' W 003°48'14 7.0 1017.7 7.0 4.0
2015-Apr-16 06:00N 53°42' W 003°36'0 0.0 1018.0 7.2 4.2
2015-Apr-16 05:00N 53°42' W 003°36'0 0.0 1018.0 7.2 5.2
2015-Apr-16 02:00N 53°42' W 003°36'0 0.0 1018.7 7.5 5.0
2015-Apr-15 23:00N 53°42' W 003°36'19 9.3 1019.0 7.6 5.1
2015-Apr-15 21:00N 53°30' W 003°12'9 4.7 1018.3 8.1 5.6
2015-Apr-15 19:00N 53°24' W 003°00'0 0.0 1018.0 8.5 4.5
2015-Apr-15 17:00N 53°24' W 003°00'0 0.0 1017.7 9.0 4.8
2015-Apr-15 15:00N 53°24' W 003°00'0 0.0 1017.7 8.7 5.5
2015-Apr-15 12:00N 53°24' W 003°00'0 0.0 1017.4 8.8 7.3
2015-Apr-15 11:00N 53°24' W 003°00'0 0.0 1017.2 9.3 6.7
2015-Apr-15 10:00N 53°24' W 003°00'0 0.0 1016.9 9.2 6.1
2015-Apr-15 08:00N 53°24' W 003°00'0 0.0 1016.6 9.4 5.6
2015-Apr-15 05:00N 53°24' W 003°00'0 0.0 1016.3 8.2 5.5
2015-Apr-15 04:00N 53°24' W 003°00'0 0.0 1016.2 8.3 5.3
2015-Apr-15 01:00N 53°24' W 003°00'0 0.0 1018.1 9.1 5.8
2015-Apr-14 22:00N 53°24' W 003°00'0 0.0 1019.1 10.4 6.5
2015-Apr-14 20:00N 53°24' W 003°00'0 0.0 1019.7 11.6 6.3
2015-Apr-14 19:00N 53°24' W 003°00'0 0.0 1019.9 13.0 6.5
2015-Apr-14 14:00N 53°24' W 003°00'0 0.0 1022.3 11.0 7.6
2015-Apr-14 09:00N 53°24' W 003°00'19 4.7 1023.3 11.9 6.5
2015-Apr-14 05:00N 53°30' W 003°30'4 3.6 1023.0 9.8 6.9
2015-Apr-14 04:00N 53°30' W 003°36'29 5.7 1023.4 9.2 6.9
2015-Apr-13 23:00N 53°30' W 004°24'7 7.1 1025.3 8.6 7.6
2015-Apr-13 22:00N 53°30' W 004°36'4 3.6 1025.2 8.5 7.5
2015-Apr-13 21:00N 53°30' W 004°42'26 5.3 1025.1 8.6 7.6
2015-Apr-13 16:00N 53°06' W 005°00'7 7.0 1026.2 9.7 8.0
2015-Apr-13 15:00N 53°00' W 005°06'19 6.5 1027.0 9.4 8.2
2015-Apr-13 12:00N 52°42' W 005°18'6 6.0 1028.7 9.0 8.3
2015-Apr-13 11:00N 52°36' W 005°18'7 7.0 1029.1 8.8 8.0
2015-Apr-13 10:00N 52°30' W 005°24'6 6.0 1029.3 8.6 7.8
2015-Apr-13 09:00N 52°24' W 005°24'19 6.5 1029.2 8.4 7.4
2015-Apr-13 06:00N 52°06' W 005°36'4310.7 1029.1 8.4 7.2
2015-Apr-13 02:00N 51°24' W 005°48'2412.1 1029.2 8.4 6.9
2015-Apr-13 00:00N 51°00' W 005°54'3010.0 1029.1 8.4 7.4
2015-Apr-12 21:00N 50°30' W 005°54'6 6.0 1028.3 10.3 8.9
2015-Apr-12 20:00N 50°24' W 005°54'2412.0 1028.0 10.4 8.9
2015-Apr-12 18:00N 50°00' W 005°54'24 8.0 1027.5 11.4 9.2
2015-Apr-12 15:00N 49°54' W 005°18'8 7.7 1027.2 11.4 9.1
2015-Apr-12 14:00N 49°54' W 005°06'39 7.8 1027.0 11.4 9.0
2015-Apr-12 09:00N 50°00' W 004°06'1211.6 1026.5 11.3 6.6
2015-Apr-12 08:00N 50°00' W 003°48'1211.6 1026.6 11.1 6.4
2015-Apr-12 07:00N 50°00' W 003°30'47 9.3 1026.7 10.2 5.9
2015-Apr-12 02:00N 50°06' W 002°18'10 9.8 1028.1 9.3 4.7
2015-Apr-12 01:00N 50°12' W 002°06'8 7.7 1028.4 9.2 4.3
2015-Apr-12 00:00N 50°12' W 001°54'8 7.7 1028.4 9.3 4.6
2015-Apr-11 23:00N 50°12' W 001°42'10 9.7 1027.9 9.3 4.4
2015-Apr-11 22:00N 50°18' W 001°30'7 7.1 1028.1 9.4 5.2
2015-Apr-11 21:00N 50°12' W 001°24'2311.3 1028.2 9.7 5.5
2015-Apr-11 19:00N 50°00' W 000°54'1313.0 1026.8 9.4 5.7
2015-Apr-11 18:00N 49°54' W 000°36'8 7.7 1026.2 9.6 5.5
2015-Apr-11 17:00N 49°54' W 000°24'1211.6 1025.6 9.6 5.1
2015-Apr-11 16:00N 49°54' W 000°06'10 9.8 1024.8 9.4 4.5
2015-Apr-11 15:00N 49°48' E 000°06'8 7.7 1024.1 9.3 5.5
2015-Apr-11 14:00N 49°48' E 000°18'4 3.9 1023.4 9.4 6.2
2015-Apr-11 13:00N 49°48' E 000°24'0 0.0 1023.2 11.1 7.7
2015-Apr-11 12:00N 49°48' E 000°24'0 0.0 1022.2 10.2 7.3
2015-Apr-11 09:00N 49°48' E 000°24'0 0.0 1018.9 11.2 8.3
2015-Apr-11 08:00N 49°48' E 000°24'0 0.0 1018.5 11.5 7.1
2015-Apr-11 03:00N 49°48' E 000°24'0 0.0 1015.9 11.3 9.8
2015-Apr-11 02:00N 49°48' E 000°24'0 0.0 1015.7 11.8 9.8
2015-Apr-11 01:00N 49°48' E 000°24'4 3.9 1016.0 11.7 9.9
2015-Apr-11 00:00N 49°48' E 000°18'0 0.0 1016.0 12.3 8.9
2015-Apr-10 23:00N 49°48' E 000°18'0 0.0 1016.6 12.5 8.8
2015-Apr-10 22:00N 49°48' E 000°18'0 0.0 1017.0 12.5 8.7
2015-Apr-10 21:00N 49°48' E 000°18'0 0.0 1017.0 13.0 6.4
2015-Apr-10 20:00N 49°48' E 000°18'0 0.0 1016.5 13.3 9.7
2015-Apr-10 16:00N 49°48' E 000°18'4 1.9 1015.9 17.4 4.0
2015-Apr-10 14:00N 49°48' E 000°12'0 0.0 1016.8 15.3 5.3
2015-Apr-10 11:00N 49°48' E 000°12'0 0.0 1018.1 15.3 5.4
2015-Apr-10 10:00N 49°48' E 000°12'0 0.0 1018.6 15.4 6.6
2015-Apr-10 09:00N 49°48' E 000°12'   1019.0 13.2 6.1

Dump ship's entire track history